sensor_id;sensor_type;location;lat;lon;timestamp;pressure;altitude;pressure_sealevel;temperature;humidity
45441;BME280;31189;38.790;-77.084;2022-07-22T00:00:41;100507.39;;;32.87;56.93
45441;BME280;31189;38.790;-77.084;2022-07-22T00:03:10;100510.41;;;33.44;54.14
45441;BME280;31189;38.790;-77.084;2022-07-22T00:05:38;100512.73;;;33.88;54.33
45441;BME280;31189;38.790;-77.084;2022-07-22T00:08:05;100517.60;;;32.62;58.51
45441;BME280;31189;38.790;-77.084;2022-07-22T00:10:33;100521.05;;;33.61;55.81
45441;BME280;31189;38.790;-77.084;2022-07-22T00:13:01;100527.37;;;33.05;57.94
45441;BME280;31189;38.790;-77.084;2022-07-22T00:15:29;100534.81;;;33.22;57.80
45441;BME280;31189;38.790;-77.084;2022-07-22T00:17:57;100529.75;;;33.70;56.71
45441;BME280;31189;38.790;-77.084;2022-07-22T00:20:24;100538.79;;;32.93;58.30
45441;BME280;31189;38.790;-77.084;2022-07-22T00:22:52;100540.67;;;32.89;59.21
45441;BME280;31189;38.790;-77.084;2022-07-22T00:25:21;100545.24;;;32.47;60.63
45441;BME280;31189;38.790;-77.084;2022-07-22T00:27:48;100544.45;;;31.63;66.26
45441;BME280;31189;38.790;-77.084;2022-07-22T00:30:17;100542.20;;;32.89;60.81
45441;BME280;31189;38.790;-77.084;2022-07-22T00:32:45;100538.98;;;31.99;65.09
45441;BME280;31189;38.790;-77.084;2022-07-22T00:35:13;100539.88;;;32.66;60.52
45441;BME280;31189;38.790;-77.084;2022-07-22T00:37:41;100544.78;;;33.44;59.22
45441;BME280;31189;38.790;-77.084;2022-07-22T00:40:10;100546.70;;;33.64;58.16
45441;BME280;31189;38.790;-77.084;2022-07-22T00:42:38;100550.49;;;33.76;57.77
45441;BME280;31189;38.790;-77.084;2022-07-22T00:45:07;100556.85;;;34.27;56.17
45441;BME280;31189;38.790;-77.084;2022-07-22T00:47:36;100560.52;;;34.16;56.55
45441;BME280;31189;38.790;-77.084;2022-07-22T00:50:05;100563.57;;;34.13;56.65
45441;BME280;31189;38.790;-77.084;2022-07-22T00:52:33;100568.35;;;32.87;58.55
45441;BME280;31189;38.790;-77.084;2022-07-22T00:55:02;100569.28;;;33.51;58.31
45441;BME280;31189;38.790;-77.084;2022-07-22T00:57:30;100568.97;;;33.37;59.64
45441;BME280;31189;38.790;-77.084;2022-07-22T00:59:58;100570.34;;;33.73;58.42
45441;BME280;31189;38.790;-77.084;2022-07-22T01:02:26;100577.59;;;33.76;58.09
45441;BME280;31189;38.790;-77.084;2022-07-22T01:04:54;100585.13;;;33.75;58.42
45441;BME280;31189;38.790;-77.084;2022-07-22T01:07:22;100585.29;;;33.47;58.93
45441;BME280;31189;38.790;-77.084;2022-07-22T01:09:50;100592.09;;;33.47;61.06
45441;BME280;31189;38.790;-77.084;2022-07-22T01:12:17;100591.01;;;33.64;59.37
45441;BME280;31189;38.790;-77.084;2022-07-22T01:14:45;100596.21;;;34.14;57.27
45441;BME280;31189;38.790;-77.084;2022-07-22T01:17:13;100602.57;;;33.40;58.30
45441;BME280;31189;38.790;-77.084;2022-07-22T01:19:40;100604.94;;;34.12;57.49
45441;BME280;31189;38.790;-77.084;2022-07-22T01:22:09;100602.47;;;33.93;57.60
45441;BME280;31189;38.790;-77.084;2022-07-22T01:24:36;100605.89;;;33.79;58.03
45441;BME280;31189;38.790;-77.084;2022-07-22T01:27:05;100613.85;;;34.00;58.67
45441;BME280;31189;38.790;-77.084;2022-07-22T01:29:33;100608.16;;;33.88;57.31
45441;BME280;31189;38.790;-77.084;2022-07-22T01:32:01;100608.08;;;33.90;56.52
45441;BME280;31189;38.790;-77.084;2022-07-22T01:34:28;100612.15;;;33.54;58.06
45441;BME280;31189;38.790;-77.084;2022-07-22T01:36:55;100614.81;;;33.67;57.43
45441;BME280;31189;38.790;-77.084;2022-07-22T01:39:24;100622.95;;;32.88;59.96
45441;BME280;31189;38.790;-77.084;2022-07-22T01:41:52;100625.50;;;33.16;58.63
45441;BME280;31189;38.790;-77.084;2022-07-22T01:44:20;100633.02;;;33.03;58.29
45441;BME280;31189;38.790;-77.084;2022-07-22T01:46:48;100640.34;;;32.97;59.13
45441;BME280;31189;38.790;-77.084;2022-07-22T01:49:15;100642.51;;;32.65;58.24
45441;BME280;31189;38.790;-77.084;2022-07-22T01:51:44;100644.76;;;33.21;57.75
45441;BME280;31189;38.790;-77.084;2022-07-22T01:54:16;100640.41;;;33.04;55.88
45441;BME280;31189;38.790;-77.084;2022-07-22T01:56:44;100637.24;;;33.29;54.83
45441;BME280;31189;38.790;-77.084;2022-07-22T01:59:12;100640.78;;;32.12;54.99
45441;BME280;31189;38.790;-77.084;2022-07-22T02:01:41;100643.99;;;32.26;56.85
45441;BME280;31189;38.790;-77.084;2022-07-22T02:04:14;100644.38;;;33.02;54.92
45441;BME280;31189;38.790;-77.084;2022-07-22T02:06:42;100642.44;;;32.42;54.26
45441;BME280;31189;38.790;-77.084;2022-07-22T02:09:10;100650.73;;;32.20;56.99
45441;BME280;31189;38.790;-77.084;2022-07-22T02:11:38;100658.00;;;30.34;60.43
45441;BME280;31189;38.790;-77.084;2022-07-22T02:14:06;100659.01;;;32.02;57.21
45441;BME280;31189;38.790;-77.084;2022-07-22T02:16:34;100657.18;;;31.42;58.04
45441;BME280;31189;38.790;-77.084;2022-07-22T02:19:03;100661.94;;;31.47;59.49
45441;BME280;31189;38.790;-77.084;2022-07-22T02:21:30;100661.82;;;31.81;57.11
45441;BME280;31189;38.790;-77.084;2022-07-22T02:23:58;100663.55;;;30.71;60.24
45441;BME280;31189;38.790;-77.084;2022-07-22T02:26:26;100669.13;;;31.08;58.67
45441;BME280;31189;38.790;-77.084;2022-07-22T02:28:54;100673.23;;;31.57;56.87
45441;BME280;31189;38.790;-77.084;2022-07-22T02:31:21;100675.85;;;31.83;56.36
45441;BME280;31189;38.790;-77.084;2022-07-22T02:33:49;100680.82;;;31.84;54.10
45441;BME280;31189;38.790;-77.084;2022-07-22T02:36:17;100681.59;;;32.04;52.69
45441;BME280;31189;38.790;-77.084;2022-07-22T02:38:45;100690.89;;;32.17;52.53
45441;BME280;31189;38.790;-77.084;2022-07-22T02:41:12;100690.04;;;31.70;52.37
45441;BME280;31189;38.790;-77.084;2022-07-22T02:43:40;100692.51;;;32.34;51.67
45441;BME280;31189;38.790;-77.084;2022-07-22T02:46:08;100692.61;;;32.41;51.13
45441;BME280;31189;38.790;-77.084;2022-07-22T02:48:36;100695.24;;;31.99;52.27
45441;BME280;31189;38.790;-77.084;2022-07-22T02:51:03;100696.62;;;31.53;54.36
45441;BME280;31189;38.790;-77.084;2022-07-22T02:53:31;100699.62;;;31.22;54.50
45441;BME280;31189;38.790;-77.084;2022-07-22T02:55:59;100701.89;;;30.19;57.92
45441;BME280;31189;38.790;-77.084;2022-07-22T02:58:26;100707.32;;;31.97;53.09
45441;BME280;31189;38.790;-77.084;2022-07-22T03:00:54;100711.24;;;31.55;53.37
45441;BME280;31189;38.790;-77.084;2022-07-22T03:03:22;100718.04;;;31.54;53.55
45441;BME280;31189;38.790;-77.084;2022-07-22T03:05:49;100717.73;;;31.36;53.89
45441;BME280;31189;38.790;-77.084;2022-07-22T03:08:17;100715.85;;;29.35;58.10
45441;BME280;31189;38.790;-77.084;2022-07-22T03:10:45;100717.21;;;30.92;54.56
45441;BME280;31189;38.790;-77.084;2022-07-22T03:13:12;100717.48;;;30.73;53.83
45441;BME280;31189;38.790;-77.084;2022-07-22T03:15:39;100719.33;;;30.98;53.01
45441;BME280;31189;38.790;-77.084;2022-07-22T03:18:08;100716.45;;;31.18;53.62
45441;BME280;31189;38.790;-77.084;2022-07-22T03:20:36;100715.69;;;30.06;54.01
45441;BME280;31189;38.790;-77.084;2022-07-22T03:23:04;100720.93;;;30.66;53.13
45441;BME280;31189;38.790;-77.084;2022-07-22T03:25:32;100723.01;;;30.87;53.03
45441;BME280;31189;38.790;-77.084;2022-07-22T03:28:00;100724.43;;;31.08;52.11
45441;BME280;31189;38.790;-77.084;2022-07-22T03:30:28;100724.83;;;31.19;52.14
45441;BME280;31189;38.790;-77.084;2022-07-22T03:32:56;100727.25;;;31.38;52.16
45441;BME280;31189;38.790;-77.084;2022-07-22T03:35:24;100725.79;;;30.00;56.96
45441;BME280;31189;38.790;-77.084;2022-07-22T03:37:52;100724.81;;;30.93;54.26
45441;BME280;31189;38.790;-77.084;2022-07-22T03:40:20;100719.31;;;29.96;58.29
45441;BME280;31189;38.790;-77.084;2022-07-22T03:42:47;100723.05;;;30.88;55.59
45441;BME280;31189;38.790;-77.084;2022-07-22T03:45:16;100723.88;;;30.15;57.70
45441;BME280;31189;38.790;-77.084;2022-07-22T03:47:44;100724.83;;;30.96;55.03
45441;BME280;31189;38.790;-77.084;2022-07-22T03:50:12;100725.29;;;30.75;55.44
45441;BME280;31189;38.790;-77.084;2022-07-22T03:52:39;100725.90;;;31.03;55.25
45441;BME280;31189;38.790;-77.084;2022-07-22T03:55:08;100726.99;;;31.32;54.56
45441;BME280;31189;38.790;-77.084;2022-07-22T03:57:36;100728.94;;;30.69;56.55
45441;BME280;31189;38.790;-77.084;2022-07-22T04:00:05;100731.17;;;30.72;56.62
45441;BME280;31189;38.790;-77.084;2022-07-22T04:02:34;100729.30;;;30.17;55.68
45441;BME280;31189;38.790;-77.084;2022-07-22T04:05:02;100730.68;;;31.17;54.75
45441;BME280;31189;38.790;-77.084;2022-07-22T04:07:30;100738.98;;;32.02;53.32
45441;BME280;31189;38.790;-77.084;2022-07-22T04:09:59;100739.40;;;31.53;54.54
45441;BME280;31189;38.790;-77.084;2022-07-22T04:12:27;100741.48;;;31.65;53.87
45441;BME280;31189;38.790;-77.084;2022-07-22T04:14:54;100747.54;;;31.90;53.66
45441;BME280;31189;38.790;-77.084;2022-07-22T04:17:21;100748.01;;;31.43;53.00
45441;BME280;31189;38.790;-77.084;2022-07-22T04:19:49;100746.75;;;31.67;52.80
45441;BME280;31189;38.790;-77.084;2022-07-22T04:22:16;100746.33;;;31.60;51.88
45441;BME280;31189;38.790;-77.084;2022-07-22T04:24:44;100749.79;;;31.96;51.49
45441;BME280;31189;38.790;-77.084;2022-07-22T04:27:12;100754.57;;;31.57;52.44
45441;BME280;31189;38.790;-77.084;2022-07-22T04:29:40;100749.92;;;31.33;52.50
45441;BME280;31189;38.790;-77.084;2022-07-22T04:32:08;100749.20;;;30.81;53.39
45441;BME280;31189;38.790;-77.084;2022-07-22T04:34:36;100748.63;;;30.88;53.08
45441;BME280;31189;38.790;-77.084;2022-07-22T04:37:04;100750.46;;;31.15;52.76
45441;BME280;31189;38.790;-77.084;2022-07-22T04:39:32;100753.64;;;31.46;54.05
45441;BME280;31189;38.790;-77.084;2022-07-22T04:41:59;100755.21;;;31.10;52.60
45441;BME280;31189;38.790;-77.084;2022-07-22T04:44:28;100757.38;;;31.15;52.92
45441;BME280;31189;38.790;-77.084;2022-07-22T04:46:57;100757.83;;;30.39;55.32
45441;BME280;31189;38.790;-77.084;2022-07-22T04:49:25;100753.36;;;29.92;56.12
45441;BME280;31189;38.790;-77.084;2022-07-22T04:51:53;100754.73;;;30.22;55.29
45441;BME280;31189;38.790;-77.084;2022-07-22T04:54:21;100755.72;;;30.69;54.24
45441;BME280;31189;38.790;-77.084;2022-07-22T04:56:49;100758.10;;;30.10;57.39
45441;BME280;31189;38.790;-77.084;2022-07-22T04:59:16;100759.47;;;29.70;58.16
45441;BME280;31189;38.790;-77.084;2022-07-22T05:01:44;100760.63;;;31.01;55.89
45441;BME280;31189;38.790;-77.084;2022-07-22T05:04:12;100764.32;;;29.72;59.41
45441;BME280;31189;38.790;-77.084;2022-07-22T05:06:40;100766.50;;;30.47;57.57
45441;BME280;31189;38.790;-77.084;2022-07-22T05:09:08;100766.52;;;30.17;57.83
45441;BME280;31189;38.790;-77.084;2022-07-22T05:11:36;100768.71;;;28.52;63.64
45441;BME280;31189;38.790;-77.084;2022-07-22T05:14:05;100772.76;;;29.30;61.68
45441;BME280;31189;38.790;-77.084;2022-07-22T05:16:32;100773.42;;;29.73;60.04
45441;BME280;31189;38.790;-77.084;2022-07-22T05:19:02;100775.33;;;30.19;57.60
45441;BME280;31189;38.790;-77.084;2022-07-22T05:21:30;100779.49;;;30.22;58.72
45441;BME280;31189;38.790;-77.084;2022-07-22T05:23:59;100784.15;;;30.71;57.49
45441;BME280;31189;38.790;-77.084;2022-07-22T05:26:27;100781.19;;;30.21;58.70
45441;BME280;31189;38.790;-77.084;2022-07-22T05:28:54;100777.40;;;30.36;57.48
45441;BME280;31189;38.790;-77.084;2022-07-22T05:31:22;100779.52;;;29.65;58.22
45441;BME280;31189;38.790;-77.084;2022-07-22T05:33:51;100784.73;;;29.78;60.40
45441;BME280;31189;38.790;-77.084;2022-07-22T05:36:18;100782.23;;;30.65;55.82
45441;BME280;31189;38.790;-77.084;2022-07-22T05:38:47;100781.72;;;31.06;55.82
45441;BME280;31189;38.790;-77.084;2022-07-22T05:41:15;100783.09;;;30.88;54.51
45441;BME280;31189;38.790;-77.084;2022-07-22T05:43:42;100782.66;;;31.20;53.64
45441;BME280;31189;38.790;-77.084;2022-07-22T05:46:10;100782.84;;;31.12;53.85
45441;BME280;31189;38.790;-77.084;2022-07-22T05:48:38;100783.67;;;30.80;54.06
45441;BME280;31189;38.790;-77.084;2022-07-22T05:51:11;100788.72;;;30.15;55.12
45441;BME280;31189;38.790;-77.084;2022-07-22T05:53:40;100793.61;;;30.36;55.08
45441;BME280;31189;38.790;-77.084;2022-07-22T05:56:09;100791.28;;;30.73;55.18
45441;BME280;31189;38.790;-77.084;2022-07-22T05:58:37;100791.87;;;30.82;55.67
45441;BME280;31189;38.790;-77.084;2022-07-22T06:01:05;100791.13;;;30.84;55.68
45441;BME280;31189;38.790;-77.084;2022-07-22T06:03:33;100791.31;;;30.81;56.23
45441;BME280;31189;38.790;-77.084;2022-07-22T06:06:02;100792.71;;;30.65;55.66
45441;BME280;31189;38.790;-77.084;2022-07-22T06:08:30;100790.03;;;29.99;57.80
45441;BME280;31189;38.790;-77.084;2022-07-22T06:10:58;100786.68;;;30.17;56.48
45441;BME280;31189;38.790;-77.084;2022-07-22T06:13:26;100783.34;;;30.09;58.01
45441;BME280;31189;38.790;-77.084;2022-07-22T06:15:54;100788.01;;;29.89;59.52
45441;BME280;31189;38.790;-77.084;2022-07-22T06:18:21;100787.49;;;29.70;60.60
45441;BME280;31189;38.790;-77.084;2022-07-22T06:20:49;100782.82;;;30.61;56.86
45441;BME280;31189;38.790;-77.084;2022-07-22T06:23:16;100783.70;;;30.03;56.86
45441;BME280;31189;38.790;-77.084;2022-07-22T06:25:44;100785.17;;;29.87;57.28
45441;BME280;31189;38.790;-77.084;2022-07-22T06:28:12;100787.99;;;29.75;59.36
45441;BME280;31189;38.790;-77.084;2022-07-22T06:30:41;100786.63;;;30.19;58.87
45441;BME280;31189;38.790;-77.084;2022-07-22T06:33:09;100784.58;;;29.93;59.45
45441;BME280;31189;38.790;-77.084;2022-07-22T06:35:39;100788.14;;;29.82;59.82
45441;BME280;31189;38.790;-77.084;2022-07-22T06:38:07;100793.38;;;29.94;58.91
45441;BME280;31189;38.790;-77.084;2022-07-22T06:40:35;100795.37;;;29.73;59.95
45441;BME280;31189;38.790;-77.084;2022-07-22T06:43:03;100795.40;;;30.16;58.25
45441;BME280;31189;38.790;-77.084;2022-07-22T06:45:31;100797.01;;;29.82;59.05
45441;BME280;31189;38.790;-77.084;2022-07-22T06:47:59;100798.78;;;30.17;58.39
45441;BME280;31189;38.790;-77.084;2022-07-22T06:50:27;100801.34;;;30.15;59.17
45441;BME280;31189;38.790;-77.084;2022-07-22T06:52:56;100801.52;;;30.42;58.08
45441;BME280;31189;38.790;-77.084;2022-07-22T06:55:24;100800.78;;;30.51;57.59
45441;BME280;31189;38.790;-77.084;2022-07-22T06:57:52;100798.66;;;30.52;57.49
45441;BME280;31189;38.790;-77.084;2022-07-22T07:00:20;100797.68;;;30.10;57.29
45441;BME280;31189;38.790;-77.084;2022-07-22T07:02:48;100799.79;;;30.34;58.06
45441;BME280;31189;38.790;-77.084;2022-07-22T07:05:16;100802.37;;;29.61;59.55
45441;BME280;31189;38.790;-77.084;2022-07-22T07:07:44;100804.42;;;30.29;58.35
45441;BME280;31189;38.790;-77.084;2022-07-22T07:10:12;100808.13;;;30.34;58.08
45441;BME280;31189;38.790;-77.084;2022-07-22T07:12:40;100811.82;;;29.94;60.70
45441;BME280;31189;38.790;-77.084;2022-07-22T07:15:09;100817.08;;;29.89;61.86
45441;BME280;31189;38.790;-77.084;2022-07-22T07:17:36;100819.67;;;30.08;60.14
45441;BME280;31189;38.790;-77.084;2022-07-22T07:20:05;100816.60;;;29.81;60.62
45441;BME280;31189;38.790;-77.084;2022-07-22T07:22:33;100818.22;;;30.04;61.19
45441;BME280;31189;38.790;-77.084;2022-07-22T07:25:03;100818.28;;;30.02;61.78
45441;BME280;31189;38.790;-77.084;2022-07-22T07:27:31;100821.64;;;29.59;62.38
45441;BME280;31189;38.790;-77.084;2022-07-22T07:29:58;100825.30;;;29.73;63.21
45441;BME280;31189;38.790;-77.084;2022-07-22T07:32:27;100830.00;;;29.29;64.58
45441;BME280;31189;38.790;-77.084;2022-07-22T07:34:55;100837.24;;;29.60;64.54
45441;BME280;31189;38.790;-77.084;2022-07-22T07:37:23;100839.10;;;28.90;66.92
45441;BME280;31189;38.790;-77.084;2022-07-22T07:39:52;100839.14;;;29.10;67.76
45441;BME280;31189;38.790;-77.084;2022-07-22T07:42:20;100835.90;;;29.40;65.30
45441;BME280;31189;38.790;-77.084;2022-07-22T07:44:48;100839.46;;;29.62;63.79
45441;BME280;31189;38.790;-77.084;2022-07-22T07:47:17;100845.49;;;29.18;64.64
45441;BME280;31189;38.790;-77.084;2022-07-22T07:49:45;100845.77;;;29.25;65.44
45441;BME280;31189;38.790;-77.084;2022-07-22T07:52:14;100845.59;;;28.89;69.94
45441;BME280;31189;38.790;-77.084;2022-07-22T07:54:43;100849.97;;;29.18;67.99
45441;BME280;31189;38.790;-77.084;2022-07-22T07:57:13;100851.64;;;29.15;67.62
45441;BME280;31189;38.790;-77.084;2022-07-22T07:59:41;100851.20;;;29.07;68.08
45441;BME280;31189;38.790;-77.084;2022-07-22T08:02:09;100856.27;;;28.68;70.16
45441;BME280;31189;38.790;-77.084;2022-07-22T08:04:38;100865.22;;;28.34;71.92
45441;BME280;31189;38.790;-77.084;2022-07-22T08:07:06;100869.50;;;28.41;71.49
45441;BME280;31189;38.790;-77.084;2022-07-22T08:09:34;100874.53;;;28.53;72.21
45441;BME280;31189;38.790;-77.084;2022-07-22T08:12:03;100879.75;;;28.31;75.09
45441;BME280;31189;38.790;-77.084;2022-07-22T08:14:31;100882.28;;;28.54;71.30
45441;BME280;31189;38.790;-77.084;2022-07-22T08:16:59;100879.81;;;28.45;71.93
45441;BME280;31189;38.790;-77.084;2022-07-22T08:19:27;100880.18;;;28.55;71.46
45441;BME280;31189;38.790;-77.084;2022-07-22T08:21:55;100881.83;;;28.63;70.91
45441;BME280;31189;38.790;-77.084;2022-07-22T08:24:23;100881.68;;;28.59;69.70
45441;BME280;31189;38.790;-77.084;2022-07-22T08:26:51;100886.44;;;29.01;68.98
45441;BME280;31189;38.790;-77.084;2022-07-22T08:29:19;100889.70;;;28.79;68.90
45441;BME280;31189;38.790;-77.084;2022-07-22T08:31:47;100895.02;;;29.34;68.37
45441;BME280;31189;38.790;-77.084;2022-07-22T08:34:19;100895.88;;;28.57;72.50
45441;BME280;31189;38.790;-77.084;2022-07-22T08:36:47;100894.56;;;28.84;69.44
45441;BME280;31189;38.790;-77.084;2022-07-22T08:39:15;100895.19;;;29.44;66.74
45441;BME280;31189;38.790;-77.084;2022-07-22T08:41:43;100903.15;;;29.32;67.14
45441;BME280;31189;38.790;-77.084;2022-07-22T08:44:12;100902.35;;;29.19;66.88
45441;BME280;31189;38.790;-77.084;2022-07-22T08:46:40;100904.28;;;28.89;67.07
45441;BME280;31189;38.790;-77.084;2022-07-22T08:49:13;100905.30;;;28.78;69.86
45441;BME280;31189;38.790;-77.084;2022-07-22T08:51:42;100905.72;;;28.90;69.89
45441;BME280;31189;38.790;-77.084;2022-07-22T08:54:10;100907.21;;;28.91;69.88
45441;BME280;31189;38.790;-77.084;2022-07-22T08:56:38;100908.10;;;28.35;72.77
45441;BME280;31189;38.790;-77.084;2022-07-22T08:59:06;100912.15;;;28.66;71.35
45441;BME280;31189;38.790;-77.084;2022-07-22T09:01:34;100912.73;;;28.79;70.89
45441;BME280;31189;38.790;-77.084;2022-07-22T09:04:03;100916.67;;;28.79;71.65
45441;BME280;31189;38.790;-77.084;2022-07-22T09:06:31;100921.36;;;29.04;69.64
45441;BME280;31189;38.790;-77.084;2022-07-22T09:09:00;100926.59;;;29.04;69.09
45441;BME280;31189;38.790;-77.084;2022-07-22T09:11:30;100928.11;;;28.53;69.96
45441;BME280;31189;38.790;-77.084;2022-07-22T09:13:59;100927.26;;;29.16;67.67
45441;BME280;31189;38.790;-77.084;2022-07-22T09:16:45;100929.61;;;29.20;67.93
45441;BME280;31189;38.790;-77.084;2022-07-22T09:19:15;100930.65;;;29.15;67.84
45441;BME280;31189;38.790;-77.084;2022-07-22T09:21:45;100937.80;;;29.02;66.66
45441;BME280;31189;38.790;-77.084;2022-07-22T09:24:27;100942.16;;;28.96;69.73
45441;BME280;31189;38.790;-77.084;2022-07-22T09:26:56;100942.50;;;28.52;72.14
45441;BME280;31189;38.790;-77.084;2022-07-22T09:29:24;100943.08;;;29.29;67.63
45441;BME280;31189;38.790;-77.084;2022-07-22T09:31:53;100944.81;;;29.39;66.73
45441;BME280;31189;38.790;-77.084;2022-07-22T09:34:27;100946.20;;;28.58;69.32
45441;BME280;31189;38.790;-77.084;2022-07-22T09:36:56;100944.80;;;29.24;66.42
45441;BME280;31189;38.790;-77.084;2022-07-22T09:39:26;100948.19;;;28.58;68.31
45441;BME280;31189;38.790;-77.084;2022-07-22T09:41:58;100953.52;;;28.81;68.29
45441;BME280;31189;38.790;-77.084;2022-07-22T09:44:25;100956.59;;;28.85;68.74
45441;BME280;31189;38.790;-77.084;2022-07-22T09:46:54;100958.85;;;28.10;73.34
45441;BME280;31189;38.790;-77.084;2022-07-22T09:49:38;100959.74;;;28.49;73.49
45441;BME280;31189;38.790;-77.084;2022-07-22T09:52:06;100963.01;;;28.27;75.63
45441;BME280;31189;38.790;-77.084;2022-07-22T09:54:34;100964.64;;;28.85;72.17
45441;BME280;31189;38.790;-77.084;2022-07-22T09:57:02;100963.76;;;28.33;74.41
45441;BME280;31189;38.790;-77.084;2022-07-22T09:59:31;100968.75;;;28.32;72.23
45441;BME280;31189;38.790;-77.084;2022-07-22T10:01:59;100974.16;;;28.16;75.33
45441;BME280;31189;38.790;-77.084;2022-07-22T10:04:33;100974.95;;;27.77;75.81
45441;BME280;31189;38.790;-77.084;2022-07-22T10:07:02;100980.68;;;28.71;72.88
45441;BME280;31189;38.790;-77.084;2022-07-22T10:09:30;100985.13;;;28.39;73.93
45441;BME280;31189;38.790;-77.084;2022-07-22T10:11:58;100987.30;;;28.39;70.38
45441;BME280;31189;38.790;-77.084;2022-07-22T10:14:27;100987.07;;;28.51;68.78
45441;BME280;31189;38.790;-77.084;2022-07-22T10:16:56;100990.75;;;28.58;68.27
45441;BME280;31189;38.790;-77.084;2022-07-22T10:19:25;100998.80;;;29.10;67.60
45441;BME280;31189;38.790;-77.084;2022-07-22T10:21:53;101001.70;;;28.41;67.80
45441;BME280;31189;38.790;-77.084;2022-07-22T10:24:20;101004.30;;;28.48;66.83
45441;BME280;31189;38.790;-77.084;2022-07-22T10:26:51;101010.69;;;28.67;68.33
45441;BME280;31189;38.790;-77.084;2022-07-22T10:29:29;101015.82;;;27.91;71.07
45441;BME280;31189;38.790;-77.084;2022-07-22T10:32:29;101020.42;;;29.68;67.76
45441;BME280;31189;38.790;-77.084;2022-07-22T10:35:31;101025.52;;;29.62;67.91
45441;BME280;31189;38.790;-77.084;2022-07-22T10:38:02;101029.35;;;28.83;67.18
45441;BME280;31189;38.790;-77.084;2022-07-22T10:40:31;101031.05;;;28.93;64.88
45441;BME280;31189;38.790;-77.084;2022-07-22T10:43:09;101034.68;;;28.99;64.36
45441;BME280;31189;38.790;-77.084;2022-07-22T10:45:40;101036.10;;;29.14;64.10
45441;BME280;31189;38.790;-77.084;2022-07-22T10:48:09;101039.77;;;29.12;63.48
45441;BME280;31189;38.790;-77.084;2022-07-22T10:50:43;101036.56;;;28.58;63.59
45441;BME280;31189;38.790;-77.084;2022-07-22T10:53:14;101038.88;;;28.98;62.34
45441;BME280;31189;38.790;-77.084;2022-07-22T10:56:14;101045.83;;;29.60;61.41
45441;BME280;31189;38.790;-77.084;2022-07-22T10:58:44;101046.27;;;29.68;62.16
45441;BME280;31189;38.790;-77.084;2022-07-22T11:01:14;101051.12;;;29.39;61.08
45441;BME280;31189;38.790;-77.084;2022-07-22T11:03:44;101050.78;;;29.32;62.57
45441;BME280;31189;38.790;-77.084;2022-07-22T11:06:30;101054.34;;;30.00;62.64
45441;BME280;31189;38.790;-77.084;2022-07-22T11:09:02;101060.05;;;29.67;62.52
45441;BME280;31189;38.790;-77.084;2022-07-22T11:11:35;101064.30;;;29.34;62.33
45441;BME280;31189;38.790;-77.084;2022-07-22T11:14:08;101061.73;;;29.54;62.97
45441;BME280;31189;38.790;-77.084;2022-07-22T11:16:38;101062.44;;;29.47;63.10
45441;BME280;31189;38.790;-77.084;2022-07-22T11:19:06;101064.42;;;29.58;62.64
45441;BME280;31189;38.790;-77.084;2022-07-22T11:21:34;101068.65;;;29.68;62.48
45441;BME280;31189;38.790;-77.084;2022-07-22T11:24:04;101070.89;;;29.76;61.78
45441;BME280;31189;38.790;-77.084;2022-07-22T11:26:39;101072.21;;;29.81;61.51
45441;BME280;31189;38.790;-77.084;2022-07-22T11:29:08;101078.97;;;30.15;61.52
45441;BME280;31189;38.790;-77.084;2022-07-22T11:31:37;101081.35;;;29.99;60.47
45441;BME280;31189;38.790;-77.084;2022-07-22T11:34:07;101082.62;;;30.19;62.47
45441;BME280;31189;38.790;-77.084;2022-07-22T11:36:36;101086.90;;;29.79;62.26
45441;BME280;31189;38.790;-77.084;2022-07-22T11:39:05;101091.50;;;30.16;61.16
45441;BME280;31189;38.790;-77.084;2022-07-22T11:41:33;101093.63;;;30.28;61.45
45441;BME280;31189;38.790;-77.084;2022-07-22T11:44:02;101095.71;;;30.03;62.38
45441;BME280;31189;38.790;-77.084;2022-07-22T11:46:36;101100.73;;;29.96;63.05
45441;BME280;31189;38.790;-77.084;2022-07-22T11:49:05;101104.86;;;30.08;65.54
45441;BME280;31189;38.790;-77.084;2022-07-22T11:51:35;101104.36;;;30.36;64.29
45441;BME280;31189;38.790;-77.084;2022-07-22T11:54:04;101105.69;;;30.47;61.53
45441;BME280;31189;38.790;-77.084;2022-07-22T11:56:34;101111.73;;;30.36;62.79
45441;BME280;31189;38.790;-77.084;2022-07-22T11:59:03;101113.64;;;30.59;59.27
45441;BME280;31189;38.790;-77.084;2022-07-22T12:01:34;101115.64;;;30.64;59.74
45441;BME280;31189;38.790;-77.084;2022-07-22T12:04:05;101115.63;;;30.58;58.30
45441;BME280;31189;38.790;-77.084;2022-07-22T12:06:34;101114.86;;;30.10;57.49
45441;BME280;31189;38.790;-77.084;2022-07-22T12:09:05;101116.25;;;30.87;57.84
45441;BME280;31189;38.790;-77.084;2022-07-22T12:11:33;101119.12;;;30.33;56.96
45441;BME280;31189;38.790;-77.084;2022-07-22T12:14:07;101122.58;;;30.81;56.98
45441;BME280;31189;38.790;-77.084;2022-07-22T12:16:36;101122.82;;;31.12;56.05
45441;BME280;31189;38.790;-77.084;2022-07-22T12:19:06;101127.43;;;31.41;55.44
45441;BME280;31189;38.790;-77.084;2022-07-22T12:21:35;101126.05;;;30.94;55.08
45441;BME280;31189;38.790;-77.084;2022-07-22T12:24:05;101127.09;;;31.03;53.73
45441;BME280;31189;38.790;-77.084;2022-07-22T12:26:43;101132.59;;;30.84;53.78
45441;BME280;31189;38.790;-77.084;2022-07-22T12:29:17;101135.41;;;30.73;55.14
45441;BME280;31189;38.790;-77.084;2022-07-22T12:31:46;101136.88;;;30.79;55.56
45441;BME280;31189;38.790;-77.084;2022-07-22T12:34:15;101139.42;;;30.57;54.64
45441;BME280;31189;38.790;-77.084;2022-07-22T12:36:45;101135.48;;;30.49;54.39
45441;BME280;31189;38.790;-77.084;2022-07-22T12:39:16;101142.10;;;30.52;55.05